Time;durP1;ratioP1;P1;durP2;ratioP2;P2;SDS_P1;SDS_P2;PMS_P1;PMS_P2;Temp;Humidity;BMP_temperature;BMP_pressure;BME280_temperature;BME280_humidity;BME280_pressure;Samples;Min_cycle;Max_cycle;Signal;HPM_P1;HPM_P2
2022/10/08 00:00:05;;;;;;;4.17;3.07;;;;;;;11.76;93.51;95156.63;5034254;28;20205;-60
2022/10/08 00:02:30;;;;;;;3.37;2.77;;;;;;;11.87;93.61;95152.41;5051043;28;20300;-61
2022/10/08 00:04:56;;;;;;;4.73;2.93;;;;;;;11.95;93.25;95161.03;5051193;28;20348;-59
2022/10/08 00:07:22;;;;;;;5.43;2.57;;;;;;;11.99;93.02;95167.50;5050619;28;20280;-60
2022/10/08 00:09:48;;;;;;;4.30;2.93;;;;;;;12.02;92.94;95176.66;5050983;28;20205;-61
2022/10/08 00:12:13;;;;;;;5.33;3.00;;;;;;;12.08;92.85;95176.94;5051116;28;20715;-58
2022/10/08 00:14:39;;;;;;;5.87;3.63;;;;;;;12.18;92.25;95179.53;5069551;22;20234;-60
2022/10/08 00:17:05;;;;;;;4.20;3.23;;;;;;;12.24;91.38;95186.69;5064370;28;20738;-58
2022/10/08 00:19:31;;;;;;;4.40;3.10;;;;;;;12.32;91.70;95181.75;5050541;28;20355;-61
2022/10/08 00:21:56;;;;;;;4.50;2.80;;;;;;;12.08;93.69;95145.56;5050495;28;20213;-61
2022/10/08 00:24:22;;;;;;;4.97;3.10;;;;;;;12.21;92.70;95161.44;5050927;28;20241;-60
2022/10/08 00:26:49;;;;;;;5.93;3.27;;;;;;;11.96;95.15;95138.94;5050242;28;20590;-60
2022/10/08 00:29:17;;;;;;;6.00;3.40;;;;;;;11.93;95.93;95136.63;5050423;28;20296;-60
2022/10/08 00:31:44;;;;;;;5.83;3.47;;;;;;;11.97;96.15;95137.97;5050392;28;20667;-61
2022/10/08 00:34:13;;;;;;;8.83;3.43;;;;;;;12.27;93.90;95168.56;5050632;28;20241;-60
2022/10/08 00:36:39;;;;;;;9.33;3.87;;;;;;;12.29;93.03;95177.72;5050001;28;20189;-59
2022/10/08 00:39:14;;;;;;;5.13;3.93;;;;;;;12.01;94.74;95146.97;5050479;28;20218;-61
2022/10/08 00:41:41;;;;;;;8.30;5.03;;;;;;;11.82;97.21;95127.28;5050362;28;20240;-58
2022/10/08 00:44:43;;;;;;;7.93;4.00;;;;;;;11.84;98.04;95127.19;5054438;22;20710;-61
2022/10/08 00:47:36;;;;;;;9.73;4.10;;;;;;;11.87;98.25;95126.94;5029975;28;20280;-56
2022/10/08 00:50:19;;;;;;;10.27;4.40;;;;;;;11.87;97.88;95126.94;5008621;28;20209;-60
2022/10/08 00:52:58;;;;;;;8.10;4.10;;;;;;;11.90;97.36;95137.66;5030434;28;20220;-61
2022/10/08 00:55:28;;;;;;;8.83;4.40;;;;;;;11.76;99.20;95120.97;5030097;28;20325;-61
2022/10/08 00:57:57;;;;;;;7.47;3.50;;;;;;;11.76;97.37;95143.91;5029969;28;20194;-61
2022/10/08 01:00:24;;;;;;;10.73;3.90;;;;;;;11.58;96.54;95149.63;5030207;28;20727;-57
2022/10/08 01:02:51;;;;;;;6.70;3.90;;;;;;;11.78;95.16;95157.31;5030053;28;20289;-63
2022/10/08 01:05:23;;;;;;;5.80;3.77;;;;;;;11.75;95.50;95159.31;5028800;28;20608;-61
2022/10/08 01:08:31;;;;;;;4.33;3.57;;;;;;;11.82;96.42;95145.94;5030120;28;20190;-61
2022/10/08 01:11:09;;;;;;;4.40;3.30;;;;;;;11.90;95.67;95152.16;5030184;28;20619;-60
2022/10/08 01:13:42;;;;;;;3.70;3.40;;;;;;;11.85;94.74;95155.09;5030180;28;20193;-58
2022/10/08 01:16:16;;;;;;;5.43;3.07;;;;;;;11.74;95.01;95138.13;5029745;28;20209;-62
2022/10/08 01:18:55;;;;;;;6.77;3.00;;;;;;;11.60;94.87;95145.22;5027332;28;20217;-60
2022/10/08 01:21:53;;;;;;;5.83;3.00;;;;;;;11.61;95.62;95127.31;4991945;28;20207;-57
2022/10/08 01:27:42;;;;;;;5.87;3.20;;;;;;;11.30;95.23;95117.97;4969868;28;20392;-61
2022/10/08 01:30:15;;;;;;;5.43;3.43;;;;;;;11.14;96.10;95112.47;5029776;28;20232;-58
2022/10/08 01:33:12;;;;;;;3.67;2.70;;;;;;;10.99;98.59;95083.97;5029499;28;20186;-60
2022/10/08 01:35:44;;;;;;;6.67;3.07;;;;;;;11.09;98.52;95089.13;5024127;28;20230;-58
2022/10/08 01:38:15;;;;;;;7.10;3.30;;;;;;;11.10;97.96;95089.94;5028279;28;20664;-60
2022/10/08 01:40:42;;;;;;;4.73;2.97;;;;;;;11.19;97.36;95095.09;5029291;28;20226;-61
2022/10/08 01:43:11;;;;;;;6.07;3.40;;;;;;;11.18;98.89;95080.78;5029646;28;20235;-61
2022/10/08 01:45:47;;;;;;;3.87;3.00;;;;;;;11.14;97.45;95091.31;5028349;28;20289;-59
2022/10/08 01:48:19;;;;;;;3.90;2.87;;;;;;;11.17;94.73;95131.78;5030985;28;20181;-60
2022/10/08 01:50:55;;;;;;;7.07;2.33;;;;;;;11.16;92.06;95158.97;5031576;28;20279;-61
2022/10/08 01:53:25;;;;;;;3.30;2.17;;;;;;;11.08;91.06;95157.94;5031767;28;20195;-59
2022/10/08 01:55:53;;;;;;;4.30;2.13;;;;;;;10.99;90.66;95159.47;5032731;28;20285;-62
2022/10/08 01:58:46;;;;;;;5.87;2.80;;;;;;;10.92;90.64;95154.06;5032965;28;20239;-61
2022/10/08 02:01:19;;;;;;;5.43;2.80;;;;;;;10.91;91.05;95149.91;5032968;28;20582;-59
2022/10/08 02:04:31;;;;;;;2.20;1.70;;;;;;;11.08;89.87;95163.84;5033009;28;20210;-61
2022/10/08 02:06:36;;;;;;;4.20;1.83;;;;;;;11.13;88.53;95184.63;5032767;28;20328;-57
2022/10/08 02:09:03;;;;;;;2.03;1.70;;;;;;;11.08;89.89;95165.56;5031416;28;20221;-60
2022/10/08 02:11:29;;;;;;;2.53;2.33;;;;;;;10.91;94.48;95106.66;5032796;28;20196;-60
2022/10/08 02:13:54;;;;;;;2.73;2.17;;;;;;;10.79;94.89;95106.81;5032572;28;20293;-60
2022/10/08 02:16:28;;;;;;;2.40;2.10;;;;;;;11.11;93.22;95138.16;5032426;28;20186;-58
2022/10/08 02:19:09;;;;;;;5.63;1.90;;;;;;;11.09;92.80;95132.38;5032444;28;20218;-58
2022/10/08 02:21:38;;;;;;;4.67;2.33;;;;;;;11.10;94.45;95116.19;5032778;28;20210;-58
2022/10/08 02:24:10;;;;;;;3.17;2.13;;;;;;;11.20;94.66;95122.16;5031180;28;20857;-60
2022/10/08 02:26:40;;;;;;;7.10;2.03;;;;;;;11.22;95.16;95106.78;5032340;28;20247;-60
2022/10/08 02:29:29;;;;;;;4.23;2.60;;;;;;;11.14;96.54;95096.41;5032860;28;20226;-58
2022/10/08 02:32:05;;;;;;;4.07;3.30;;;;;;;11.14;97.02;95094.66;5021832;28;20631;-61
2022/10/08 02:34:39;;;;;;;3.40;2.90;;;;;;;11.20;97.22;95096.72;5031189;28;20224;-60
2022/10/08 02:37:39;;;;;;;5.87;3.37;;;;;;;11.25;98.12;95092.06;5032368;28;20205;-61
2022/10/08 02:40:10;;;;;;;4.47;3.10;;;;;;;11.29;98.22;95085.78;4935731;29;20232;-61
2022/10/08 02:42:39;;;;;;;6.50;4.27;;;;;;;11.41;97.30;95100.06;5017540;28;20280;-60
2022/10/08 02:45:14;;;;;;;4.67;3.30;;;;;;;11.27;98.27;95084.31;5032577;28;20225;-60
2022/10/08 02:47:41;;;;;;;5.93;3.57;;;;;;;10.99;98.25;95083.16;5031902;28;20216;-57
2022/10/08 02:50:11;;;;;;;5.30;3.80;;;;;;;11.11;99.56;95078.84;5032406;28;20210;-67
2022/10/08 02:52:40;;;;;;;7.87;3.17;;;;;;;10.85;99.30;95079.16;5030619;28;20204;-60
2022/10/08 02:55:18;;;;;;;5.57;3.30;;;;;;;10.89;100.00;95057.66;5032145;28;20221;-57
2022/10/08 02:57:50;;;;;;;4.43;3.10;;;;;;;10.75;99.42;95082.53;5031829;28;20267;-62
2022/10/08 03:00:16;;;;;;;4.70;2.77;;;;;;;10.73;97.18;95113.19;5030719;28;20283;-61
2022/10/08 03:03:14;;;;;;;4.17;2.40;;;;;;;10.25;99.19;95081.38;5031759;28;20214;-58
2022/10/08 03:05:44;;;;;;;5.63;3.03;;;;;;;10.26;99.72;95079.66;5031742;28;20232;-60
2022/10/08 03:08:13;;;;;;;3.13;2.30;;;;;;;10.41;99.40;95084.38;5030236;28;20274;-61
2022/10/08 03:10:40;;;;;;;5.27;2.27;;;;;;;10.35;100.00;95071.31;5030417;28;20217;-60
2022/10/08 03:13:07;;;;;;;3.60;2.63;;;;;;;10.36;100.00;95065.31;5013223;28;20194;-61
2022/10/08 03:15:35;;;;;;;2.37;2.17;;;;;;;10.30;100.00;95068.34;5013200;28;20312;-59
2022/10/08 03:18:05;;;;;;;3.77;3.03;;;;;;;10.58;98.58;95100.88;5030175;28;20678;-60
2022/10/08 03:20:30;;;;;;;3.97;3.30;;;;;;;10.53;97.37;95102.94;5031959;28;20609;-62
2022/10/08 03:23:00;;;;;;;2.97;2.40;;;;;;;10.33;99.07;95074.00;5031405;28;20713;-59
2022/10/08 03:25:25;;;;;;;3.70;2.23;;;;;;;10.05;100.00;95049.88;5029447;23;20238;-59
2022/10/08 03:27:51;;;;;;;4.43;2.70;;;;;;;10.28;100.00;95076.06;5032622;28;20248;-58
2022/10/08 03:30:17;;;;;;;3.07;2.50;;;;;;;10.27;99.71;95078.72;5022249;28;20307;-57
2022/10/08 03:32:42;;;;;;;4.00;2.60;;;;;;;10.31;99.94;95083.47;5031704;28;20209;-58
2022/10/08 03:35:08;;;;;;;3.23;2.57;;;;;;;10.23;100.00;95084.97;5031190;28;20214;-60
2022/10/08 03:37:34;;;;;;;5.57;3.37;;;;;;;9.87;100.00;95051.25;5031294;28;20198;-60
2022/10/08 03:39:59;;;;;;;5.87;3.50;;;;;;;9.88;100.00;95050.31;5031265;28;20652;-61
2022/10/08 03:42:25;;;;;;;5.67;2.30;;;;;;;9.94;100.00;95062.56;5031218;28;20218;-59
2022/10/08 03:44:50;;;;;;;3.83;2.50;;;;;;;9.94;100.00;95046.50;5025099;28;20557;-60
2022/10/08 03:47:16;;;;;;;3.60;2.20;;;;;;;9.95;100.00;95038.78;5052150;28;20663;-60
2022/10/08 03:49:41;;;;;;;5.97;3.20;;;;;;;9.98;100.00;95038.53;5006531;28;20222;-60
2022/10/08 03:52:07;;;;;;;3.20;2.77;;;;;;;10.02;100.00;95052.63;5011509;28;20195;-60
2022/10/08 03:54:36;;;;;;;6.77;3.77;;;;;;;10.20;100.00;95055.50;5011225;28;20214;-61
2022/10/08 03:57:02;;;;;;;11.30;3.63;;;;;;;10.27;100.00;95064.28;5011593;28;20603;-61
2022/10/08 03:59:28;;;;;;;6.67;4.00;;;;;;;10.30;100.00;95060.72;5011149;28;20302;-60
2022/10/08 04:01:53;;;;;;;6.27;4.00;;;;;;;10.38;100.00;95069.38;5011649;28;20222;-57
2022/10/08 04:04:19;;;;;;;11.13;4.13;;;;;;;10.31;100.00;95060.59;5011098;28;20207;-60
2022/10/08 04:06:45;;;;;;;5.67;3.90;;;;;;;10.34;100.00;95059.56;5011140;28;20195;-62
2022/10/08 04:09:10;;;;;;;7.27;4.17;;;;;;;10.38;100.00;95060.94;5011192;28;20210;-60
2022/10/08 04:11:36;;;;;;;7.23;3.67;;;;;;;10.47;100.00;95067.81;4993197;28;20218;-60
2022/10/08 04:14:02;;;;;;;6.20;4.00;;;;;;;10.66;100.00;95078.19;5011089;28;20218;-61
2022/10/08 04:16:27;;;;;;;6.30;4.27;;;;;;;10.91;100.00;95100.75;5010786;28;20199;-57
2022/10/08 04:18:53;;;;;;;8.10;3.93;;;;;;;10.83;100.00;95090.38;4992921;28;20580;-60
2022/10/08 04:21:19;;;;;;;6.47;4.53;;;;;;;10.59;100.00;95079.59;5009701;28;20719;-61
2022/10/08 04:23:45;;;;;;;7.57;4.10;;;;;;;10.45;100.00;95062.06;5010949;28;20238;-60
2022/10/08 04:26:13;;;;;;;7.27;4.30;;;;;;;10.38;100.00;95056.66;4993276;28;20811;-60
2022/10/08 04:28:40;;;;;;;12.20;4.70;;;;;;;10.53;100.00;95074.97;5010697;28;20199;-60
2022/10/08 04:31:17;;;;;;;9.67;5.60;;;;;;;10.52;100.00;95081.00;5011142;28;20190;-58
2022/10/08 04:33:44;;;;;;;5.93;4.47;;;;;;;10.22;100.00;95070.66;5010897;28;20712;-60
2022/10/08 04:36:12;;;;;;;7.60;5.00;;;;;;;10.20;100.00;95069.97;4992837;28;20191;-60
2022/10/08 04:38:37;;;;;;;8.33;4.67;;;;;;;10.24;100.00;95074.69;5010774;28;20195;-61
2022/10/08 04:41:08;;;;;;;9.23;4.90;;;;;;;10.25;100.00;95086.47;5010907;28;20210;-59
2022/10/08 04:43:36;;;;;;;6.67;4.83;;;;;;;10.00;100.00;95067.16;5010520;28;20195;-58
2022/10/08 04:46:02;;;;;;;5.20;3.50;;;;;;;9.92;100.00;95061.88;4992901;28;20186;-58
2022/10/08 04:48:28;;;;;;;9.43;3.50;;;;;;;9.62;100.00;95059.09;4993045;28;20248;-58
2022/10/08 04:50:57;;;;;;;5.03;3.30;;;;;;;9.62;100.00;95065.88;5010515;28;20281;-57
2022/10/08 04:53:24;;;;;;;8.37;3.93;;;;;;;9.66;100.00;95074.88;5009541;28;20296;-60
2022/10/08 04:55:51;;;;;;;4.43;3.47;;;;;;;9.65;100.00;95074.09;5010447;28;20579;-61
2022/10/08 04:58:16;;;;;;;5.77;2.90;;;;;;;9.65;100.00;95073.28;5010544;28;20669;-61
2022/10/08 05:00:42;;;;;;;5.20;3.70;;;;;;;9.65;100.00;95076.63;5010435;28;20221;-60
2022/10/08 05:03:07;;;;;;;5.73;3.30;;;;;;;9.53;100.00;95077.53;5010561;28;20191;-61
2022/10/08 05:05:33;;;;;;;5.27;3.60;;;;;;;9.50;100.00;95080.28;5010248;28;20225;-60
2022/10/08 05:07:58;;;;;;;5.40;3.80;;;;;;;9.43;100.00;95076.59;4992509;28;20194;-61
2022/10/08 05:10:24;;;;;;;6.20;3.57;;;;;;;9.41;100.00;95078.44;5010427;28;20219;-61
2022/10/08 05:12:50;;;;;;;7.53;4.23;;;;;;;9.19;100.00;95074.09;5010420;28;20294;-62
2022/10/08 05:15:15;;;;;;;6.27;3.37;;;;;;;9.15;100.00;95077.00;4992209;28;20597;-57
2022/10/08 05:17:40;;;;;;;5.90;4.20;;;;;;;8.99;100.00;95079.81;5010030;28;20197;-60
2022/10/08 05:20:06;;;;;;;6.10;4.00;;;;;;;9.07;100.00;95086.88;5010193;28;20643;-60
2022/10/08 05:22:31;;;;;;;4.67;3.60;;;;;;;9.30;100.00;95091.09;5009040;28;20215;-60
2022/10/08 05:24:57;;;;;;;8.90;4.43;;;;;;;9.45;100.00;95102.69;5009903;28;20540;-60
2022/10/08 05:27:22;;;;;;;5.43;3.57;;;;;;;9.42;100.00;95105.44;5010146;28;20174;-61
2022/10/08 05:29:48;;;;;;;5.73;4.17;;;;;;;9.44;100.00;95106.13;5012040;28;20312;-61
2022/10/08 05:32:13;;;;;;;8.83;4.03;;;;;;;9.47;100.00;95111.00;5032886;28;20204;-61
2022/10/08 05:34:38;;;;;;;6.87;3.87;;;;;;;9.47;100.00;95103.38;5074368;22;20744;-62
2022/10/08 05:37:04;;;;;;;9.07;4.50;;;;;;;9.60;100.00;95108.34;5051638;28;20193;-58
2022/10/08 05:39:29;;;;;;;11.47;3.97;;;;;;;9.61;100.00;95123.47;5078856;28;20284;-61
2022/10/08 05:41:55;;;;;;;7.00;3.83;;;;;;;9.51;100.00;95119.19;5089746;28;20602;-60
2022/10/08 05:44:20;;;;;;;6.33;4.10;;;;;;;9.42;100.00;95109.69;5071651;28;20215;-61
2022/10/08 05:46:45;;;;;;;4.57;3.50;;;;;;;9.51;100.00;95120.00;5089396;28;20215;-61
2022/10/08 05:49:18;;;;;;;5.77;4.27;;;;;;;9.51;100.00;95114.09;5071636;28;20303;-61
2022/10/08 05:51:44;;;;;;;8.63;4.40;;;;;;;9.57;100.00;95122.09;5089536;28;20204;-60
2022/10/08 05:54:09;;;;;;;6.90;4.30;;;;;;;9.62;100.00;95117.47;5089799;28;20696;-61
2022/10/08 05:56:34;;;;;;;7.50;4.03;;;;;;;9.59;100.00;95116.88;5089019;28;20200;-59
2022/10/08 05:59:00;;;;;;;6.70;4.93;;;;;;;9.71;100.00;95124.41;5089646;28;20208;-61
2022/10/08 06:01:30;;;;;;;8.20;6.00;;;;;;;9.84;100.00;95130.19;5089376;28;20277;-61
2022/10/08 06:04:04;;;;;;;7.47;5.40;;;;;;;9.98;100.00;95136.78;5089172;28;20254;-58
2022/10/08 06:06:30;;;;;;;5.60;4.30;;;;;;;10.04;100.00;95138.84;5089116;28;20193;-57
2022/10/08 06:08:58;;;;;;;9.07;4.23;;;;;;;10.10;100.00;95124.00;5089450;28;20299;-58
2022/10/08 06:11:31;;;;;;;5.40;4.00;;;;;;;10.27;100.00;95135.44;5089269;28;20195;-62
2022/10/08 06:13:58;;;;;;;8.63;4.40;;;;;;;10.46;100.00;95140.75;5089231;28;20212;-58
2022/10/08 06:16:24;;;;;;;5.20;4.17;;;;;;;10.46;100.00;95134.84;5088926;28;20206;-61
2022/10/08 06:18:50;;;;;;;5.90;4.07;;;;;;;10.74;100.00;95152.16;5089313;28;20273;-60
2022/10/08 06:21:19;;;;;;;5.80;4.93;;;;;;;10.84;100.00;95132.69;5089033;28;20260;-59
2022/10/08 06:23:55;;;;;;;6.47;4.53;;;;;;;10.91;100.00;95169.44;5088972;28;20265;-61
2022/10/08 06:26:25;;;;;;;5.67;4.40;;;;;;;11.00;100.00;95163.66;5088944;28;20184;-60
2022/10/08 06:28:51;;;;;;;6.30;4.13;;;;;;;11.11;100.00;95167.91;5089094;28;20208;-60
2022/10/08 06:31:17;;;;;;;6.03;4.03;;;;;;;11.16;100.00;95155.59;5089025;28;20280;-62
2022/10/08 06:33:44;;;;;;;5.47;3.70;;;;;;;11.37;100.00;95195.44;5089849;28;20247;-59
2022/10/08 06:36:23;;;;;;;7.90;4.27;;;;;;;11.52;100.00;95194.22;5074240;28;20203;-59
2022/10/08 06:38:54;;;;;;;5.70;3.90;;;;;;;11.58;100.00;95198.84;5092485;28;20212;-61
2022/10/08 06:41:20;;;;;;;9.80;4.70;;;;;;;11.68;100.00;95215.03;5092288;28;20211;-64
2022/10/08 06:43:46;;;;;;;5.63;3.73;;;;;;;11.72;100.00;95203.66;5092183;28;20299;-62
2022/10/08 06:46:12;;;;;;;6.93;4.13;;;;;;;11.84;100.00;95206.94;5092005;28;20192;-61
2022/10/08 06:48:38;;;;;;;7.97;4.17;;;;;;;11.90;100.00;95192.94;5092109;28;20244;-57
2022/10/08 06:51:13;;;;;;;12.57;8.17;;;;;;;12.06;100.00;95157.63;5074010;28;20211;-61
2022/10/08 06:53:39;;;;;;;6.23;4.60;;;;;;;12.35;100.00;95074.41;5092377;28;20248;-61
2022/10/08 06:56:09;;;;;;;9.53;4.87;;;;;;;12.44;98.78;95232.53;5091703;28;20199;-62
2022/10/08 06:58:35;;;;;;;5.63;4.50;;;;;;;12.68;97.05;95246.75;5092326;28;20184;-61
2022/10/08 07:01:22;;;;;;;6.03;4.50;;;;;;;12.76;98.01;95224.75;5092021;28;20203;-62
2022/10/08 07:03:49;;;;;;;8.70;5.30;;;;;;;13.02;96.74;95237.84;5091778;28;20227;-60
2022/10/08 07:06:15;;;;;;;7.40;5.10;;;;;;;13.20;94.23;95252.47;5091713;28;20205;-61
2022/10/08 07:08:40;;;;;;;9.37;5.10;;;;;;;13.40;93.32;95259.22;5092050;28;20184;-57
2022/10/08 07:11:09;;;;;;;9.17;5.40;;;;;;;13.45;92.96;95253.72;5091797;28;20188;-62
2022/10/08 07:13:36;;;;;;;11.50;6.40;;;;;;;13.29;93.47;95248.31;5092168;28;20263;-61
2022/10/08 07:16:12;;;;;;;11.93;6.47;;;;;;;13.48;90.80;95281.53;5091540;28;20249;-60
2022/10/08 07:18:39;;;;;;;13.27;6.20;;;;;;;13.71;90.43;95284.66;5073570;28;20661;-60
2022/10/08 07:21:06;;;;;;;8.55;5.85;;;;;;;13.98;87.63;95321.41;5091669;28;20228;-61
2022/10/08 07:23:31;;;;;;;11.35;6.38;;;;;;;14.17;86.22;95329.09;5091443;28;20188;-61
2022/10/08 07:26:12;;;;;;;10.40;6.80;;;;;;;14.21;85.46;95333.00;5091475;28;20202;-58
2022/10/08 07:28:41;;;;;;;12.90;6.30;;;;;;;14.23;85.14;95325.19;5091650;28;20192;-59
2022/10/08 07:31:12;;;;;;;10.43;6.72;;;;;;;14.18;84.89;95324.78;5091469;28;20261;-62
2022/10/08 07:33:39;;;;;;;12.93;7.65;;;;;;;14.15;86.80;95290.06;5091363;28;20220;-57
2022/10/08 07:36:15;;;;;;;11.80;6.25;;;;;;;14.55;85.55;95299.31;5073010;28;20317;-61
2022/10/08 07:38:42;;;;;;;15.10;8.77;;;;;;;14.50;86.79;95275.91;5091651;28;20196;-57
2022/10/08 07:41:09;;;;;;;13.52;8.23;;;;;;;14.42;87.05;95274.03;5073062;28;20218;-62
2022/10/08 07:43:36;;;;;;;9.70;6.35;;;;;;;14.75;85.74;95298.31;5091068;28;20192;-60
2022/10/08 07:46:04;;;;;;;7.20;5.80;;;;;;;14.97;85.72;95285.97;5072150;28;20667;-57
2022/10/08 07:48:30;;;;;;;10.88;6.70;;;;;;;15.25;84.68;95297.03;5091080;28;20237;-61
2022/10/08 07:51:08;;;;;;;10.43;5.70;;;;;;;15.65;81.92;95348.81;5072673;28;20188;-61
2022/10/08 07:53:34;;;;;;;11.55;6.13;;;;;;;15.82;81.08;95349.78;5091247;28;20192;-56
2022/10/08 07:56:00;;;;;;;13.35;6.75;;;;;;;15.95;79.58;95369.00;5090749;28;20188;-60
2022/10/08 07:58:26;;;;;;;16.73;6.53;;;;;;;16.12;79.86;95354.56;5090855;28;20638;-58
2022/10/08 08:00:56;;;;;;;12.50;6.22;;;;;;;16.39;80.04;95343.41;5090908;28;20198;-57
2022/10/08 08:03:22;;;;;;;11.55;6.38;;;;;;;16.60;78.82;95357.56;5090961;28;20188;-63
2022/10/08 08:05:48;;;;;;;7.35;5.65;;;;;;;16.68;79.58;95336.31;5072541;28;20218;-58
2022/10/08 08:08:13;;;;;;;14.30;10.27;;;;;;;16.75;79.20;95339.88;5071648;28;20208;-62
2022/10/08 08:10:39;;;;;;;14.98;7.78;;;;;;;16.71;77.37;95370.19;5089038;28;20212;-61
2022/10/08 08:13:04;;;;;;;15.07;6.97;;;;;;;17.34;74.33;95423.91;5078558;28;20574;-61
2022/10/08 08:15:29;;;;;;;12.18;8.13;;;;;;;17.49;73.75;95419.84;5072030;28;20281;-60
2022/10/08 08:17:55;;;;;;;13.50;7.45;;;;;;;17.63;72.43;95426.19;5082357;28;20192;-60
2022/10/08 08:20:20;;;;;;;11.35;8.00;;;;;;;17.95;73.30;95401.41;5090668;28;20213;-61
2022/10/08 08:22:46;;;;;;;12.55;7.05;;;;;;;18.30;71.65;95436.41;5090623;28;20685;-63
2022/10/08 08:25:11;;;;;;;16.40;9.68;;;;;;;18.28;70.38;95444.25;5090666;28;20273;-60
2022/10/08 08:27:37;;;;;;;14.35;7.20;;;;;;;18.75;69.29;95441.16;5090372;28;20554;-59
2022/10/08 08:30:03;;;;;;;13.10;7.00;;;;;;;18.99;69.92;95425.69;5090833;28;20219;-62
2022/10/08 08:32:29;;;;;;;11.13;6.97;;;;;;;19.34;67.37;95474.38;5090381;28;20257;-58
2022/10/08 08:34:54;;;;;;;10.63;6.68;;;;;;;19.58;65.54;95492.38;5072323;28;20406;-58
2022/10/08 08:37:19;;;;;;;11.43;6.70;;;;;;;19.87;64.20;95502.97;5090158;28;20199;-58
2022/10/08 08:39:45;;;;;;;10.18;6.55;;;;;;;20.19;62.88;95525.31;5090564;28;20208;-60
2022/10/08 08:42:24;;;;;;;9.25;6.07;;;;;;;20.34;64.06;95481.53;5072214;28;20211;-57
2022/10/08 08:44:58;;;;;;;14.40;6.53;;;;;;;20.25;63.45;95482.53;5090447;28;20589;-61
2022/10/08 08:47:40;;;;;;;7.15;5.25;;;;;;;20.76;60.11;95560.28;5089949;28;20186;-61
2022/10/08 08:50:34;;;;;;;7.07;5.38;;;;;;;20.87;60.81;95522.88;5092252;28;20214;-61
2022/10/08 08:53:08;;;;;;;8.07;4.80;;;;;;;21.39;56.53;95606.59;5089756;28;20227;-62
2022/10/08 08:55:42;;;;;;;9.45;5.43;;;;;;;21.60;56.00;95468.81;5072273;28;20311;-60
2022/10/08 08:58:18;;;;;;;9.25;5.93;;;;;;;21.28;57.00;95418.19;5088732;28;20180;-61
2022/10/08 09:01:07;;;;;;;7.85;5.28;;;;;;;21.77;56.82;95412.50;5090151;28;20208;-59
2022/10/08 09:03:40;;;;;;;9.55;4.80;;;;;;;21.89;54.96;95449.91;5089848;28;20199;-60
2022/10/08 09:06:13;;;;;;;8.93;5.05;;;;;;;21.89;55.19;95406.72;5089898;28;20678;-61
2022/10/08 09:08:56;;;;;;;5.45;4.88;;;;;;;21.98;53.33;95451.44;5090051;28;20232;-61
2022/10/08 09:11:23;;;;;;;7.10;4.57;;;;;;;22.06;53.57;95446.16;5090089;28;20195;-61
2022/10/08 09:14:10;;;;;;;8.27;4.65;;;;;;;22.20;54.43;95411.66;5089685;28;20705;-61
2022/10/08 09:16:37;;;;;;;9.43;4.63;;;;;;;22.09;52.43;95438.84;5089617;28;20262;-61
2022/10/08 09:19:03;;;;;;;7.97;5.10;;;;;;;22.01;52.05;95438.13;5089703;28;20728;-59
2022/10/08 09:21:31;;;;;;;8.35;4.82;;;;;;;21.88;50.59;95456.88;5089951;28;20231;-60
2022/10/08 09:23:56;;;;;;;14.43;7.35;;;;;;;21.62;52.52;95405.53;5089690;28;20212;-60
2022/10/08 09:26:24;;;;;;;9.73;4.95;;;;;;;21.99;53.49;95380.53;5089618;28;20180;-60
2022/10/08 09:28:55;;;;;;;5.82;4.28;;;;;;;22.48;55.60;95338.19;5089653;28;20306;-62
2022/10/08 09:31:31;;;;;;;8.45;4.63;;;;;;;23.04;54.29;95369.41;5089773;28;20195;-60
2022/10/08 09:34:14;;;;;;;10.93;4.70;;;;;;;23.37;51.02;95434.53;5089571;28;20235;-61
2022/10/08 09:37:12;;;;;;;7.30;4.75;;;;;;;23.54;48.72;95467.81;5089512;28;20579;-60
2022/10/08 09:39:37;;;;;;;9.70;4.72;;;;;;;23.75;47.77;95475.56;5089093;28;20227;-62
2022/10/08 09:42:05;;;;;;;8.40;4.63;;;;;;;23.77;46.43;95489.16;5089467;28;20207;-60
2022/10/08 09:44:44;;;;;;;6.00;4.32;;;;;;;23.75;44.81;95518.91;5071397;28;20592;-61
2022/10/08 09:47:13;;;;;;;6.15;4.13;;;;;;;23.84;44.60;95505.56;5089076;28;20305;-59
2022/10/08 09:49:39;;;;;;;8.18;3.60;;;;;;;23.94;45.20;95480.06;5089555;28;20287;-59
2022/10/08 09:52:20;;;;;;;4.25;3.38;;;;;;;23.97;44.08;95466.69;5089443;28;20252;-60
2022/10/08 09:54:51;;;;;;;7.85;3.88;;;;;;;23.85;44.57;95431.06;5089479;28;20235;-57
2022/10/08 09:57:20;;;;;;;6.15;4.20;;;;;;;23.71;45.29;95421.59;5089126;28;20686;-61
2022/10/08 10:00:04;;;;;;;6.45;3.60;;;;;;;23.31;44.36;95430.88;5089304;28;20222;-60
2022/10/08 10:02:35;;;;;;;9.90;3.92;;;;;;;23.01;45.48;95388.72;5089205;28;20208;-61
2022/10/08 10:05:18;;;;;;;3.65;2.80;;;;;;;23.41;44.74;95407.22;5077534;28;20216;-60
2022/10/08 10:07:44;;;;;;;4.53;3.40;;;;;;;24.16;43.95;95427.03;5070321;28;20184;-61
2022/10/08 10:10:43;;;;;;;4.25;3.60;;;;;;;24.70;44.39;95402.78;5068099;28;20313;-61
2022/10/08 10:13:33;;;;;;;6.32;3.47;;;;;;;25.20;42.36;95445.69;5092674;28;20195;-62
2022/10/08 10:16:13;;;;;;;5.30;3.65;;;;;;;25.14;40.80;95418.66;5074173;28;20219;-62
2022/10/08 10:19:02;;;;;;;8.32;3.25;;;;;;;25.04;40.85;95396.63;5092599;28;20538;-59
2022/10/08 10:21:36;;;;;;;10.57;3.60;;;;;;;25.42;39.54;95421.88;5091713;28;20246;-61
2022/10/08 10:24:26;;;;;;;4.32;2.75;;;;;;;25.95;40.19;95399.09;5092495;28;20557;-61
2022/10/08 10:26:57;;;;;;;6.43;2.67;;;;;;;26.10;37.47;95449.19;5092134;28;20218;-62
2022/10/08 10:29:28;;;;;;;4.75;2.90;;;;;;;25.53;37.57;95430.88;5092644;28;20207;-60
2022/10/08 10:32:03;;;;;;;4.13;3.00;;;;;;;25.39;39.11;95364.94;5092415;28;20604;-63
2022/10/08 10:34:32;;;;;;;8.18;3.92;;;;;;;25.78;38.99;95371.88;5092506;28;20212;-61
2022/10/08 10:37:00;;;;;;;11.18;3.08;;;;;;;25.46;40.02;95334.53;5092274;28;20242;-62
2022/10/08 10:39:43;;;;;;;4.45;3.40;;;;;;;25.67;39.02;95352.47;5092141;28;20247;-60
2022/10/08 10:42:14;;;;;;;6.65;3.65;;;;;;;25.98;38.99;95346.53;5074126;28;20391;-59
2022/10/08 10:45:41;;;;;;;5.32;3.20;;;;;;;26.47;37.54;95382.44;5092624;28;20208;-62
2022/10/08 10:48:12;;;;;;;7.78;2.88;;;;;;;26.66;38.79;95336.34;5032854;28;20582;-61
2022/10/08 10:50:44;;;;;;;3.35;2.80;;;;;;;25.96;38.12;95348.56;5049651;28;20259;-59
2022/10/08 10:53:42;;;;;;;5.32;2.97;;;;;;;24.84;37.25;95348.00;5072508;28;20282;-58
2022/10/08 10:56:19;;;;;;;5.40;3.05;;;;;;;25.87;38.17;95318.53;5092006;28;20549;-60
2022/10/08 10:58:53;;;;;;;3.20;2.90;;;;;;;25.80;38.16;95318.56;5084198;28;20211;-62
2022/10/08 11:01:43;;;;;;;5.45;3.35;;;;;;;26.17;37.36;95335.28;5072948;28;20703;-59
2022/10/08 11:04:20;;;;;;;3.20;2.90;;;;;;;26.55;37.52;95324.78;5082311;28;20641;-62
2022/10/08 11:07:04;;;;;;;4.80;2.72;;;;;;;26.62;38.05;95302.84;5091842;28;20191;-61
2022/10/08 11:09:46;;;;;;;5.25;3.50;;;;;;;26.71;37.51;95321.69;5073999;28;20576;-63
2022/10/08 11:12:14;;;;;;;6.20;3.10;;;;;;;26.55;37.92;95296.09;5091879;28;20263;-58
2022/10/08 11:14:53;;;;;;;7.25;3.22;;;;;;;26.46;36.79;95326.84;5091982;28;20607;-59
2022/10/08 11:17:50;;;;;;;12.00;3.47;;;;;;;26.88;36.34;95332.41;5091488;28;20184;-62
2022/10/08 11:20:38;;;;;;;3.28;2.78;;;;;;;26.46;36.26;95315.63;5090348;28;20272;-60
2022/10/08 11:23:29;;;;;;;6.85;3.25;;;;;;;26.49;36.10;95321.22;5073552;28;20728;-62
2022/10/08 11:26:01;;;;;;;4.10;3.00;;;;;;;26.73;36.20;95314.44;5090493;28;20196;-60
2022/10/08 11:28:26;;;;;;;7.82;3.63;;;;;;;26.38;36.55;95290.59;5091452;28;20721;-62
2022/10/08 11:30:54;;;;;;;4.70;3.15;;;;;;;26.31;36.14;95291.66;5091931;28;20303;-59
2022/10/08 11:33:21;;;;;;;3.55;2.88;;;;;;;26.78;37.78;95253.78;5091733;28;20192;-60
2022/10/08 11:36:00;;;;;;;3.45;2.80;;;;;;;26.27;35.40;95309.53;5091624;28;20673;-63
2022/10/08 11:38:38;;;;;;;4.40;2.88;;;;;;;26.53;35.34;95298.13;5091467;28;20195;-60
2022/10/08 11:41:39;;;;;;;4.10;3.28;;;;;;;26.63;37.53;95241.03;5091421;28;20685;-60
2022/10/08 11:44:09;;;;;;;4.95;2.70;;;;;;;26.88;37.80;95228.00;5091361;28;20224;-61
2022/10/08 11:46:35;;;;;;;4.07;2.97;;;;;;;26.86;36.52;95263.94;5091552;28;20183;-62
2022/10/08 11:49:13;;;;;;;3.40;3.08;;;;;;;27.04;35.12;95300.53;5073024;28;20268;-59
2022/10/08 11:51:42;;;;;;;5.05;2.83;;;;;;;27.16;35.68;95277.91;5073290;28;20188;-61
2022/10/08 11:54:37;;;;;;;7.50;3.20;;;;;;;26.96;35.47;95272.91;5091032;28;20220;-62